createdAt,value
2023-03-06T00:02:21.280Z,2.38
2023-03-06T00:04:51.087Z,2.23
2023-03-06T00:07:23.574Z,2.33
2023-03-06T00:09:53.350Z,2.36
2023-03-06T00:12:23.971Z,2.36
2023-03-06T00:14:54.276Z,2.37
2023-03-06T00:17:24.145Z,2.39
2023-03-06T00:19:56.321Z,2.33
2023-03-06T00:22:30.206Z,2.37
2023-03-06T00:25:03.126Z,2.42
2023-03-06T00:27:34.486Z,2.42
2023-03-06T00:30:07.839Z,2.40
2023-03-06T00:32:37.833Z,2.40
2023-03-06T00:35:09.961Z,2.39
2023-03-06T00:37:45.088Z,2.34
2023-03-06T00:40:18.548Z,2.37
2023-03-06T00:42:50.473Z,2.25
2023-03-06T00:45:23.433Z,2.27
2023-03-06T00:47:53.523Z,1.91
2023-03-06T00:50:23.598Z,2.10
2023-03-06T00:52:56.064Z,2.19
2023-03-06T00:55:29.451Z,2.24
2023-03-06T00:57:59.870Z,2.23
2023-03-06T01:00:31.221Z,2.21
2023-03-06T01:03:01.277Z,2.24
2023-03-06T01:05:31.466Z,2.22
2023-03-06T01:08:05.104Z,2.23
2023-03-06T01:10:35.677Z,2.20
2023-03-06T01:13:06.094Z,2.23
2023-03-06T01:15:36.615Z,2.25
2023-03-06T01:18:08.619Z,2.29
2023-03-06T01:20:39.930Z,2.30
2023-03-06T01:23:12.642Z,2.26
2023-03-06T01:25:42.508Z,2.26
2023-03-06T01:28:13.160Z,2.22
2023-03-06T01:30:43.049Z,2.05
2023-03-06T01:33:13.261Z,1.88
2023-03-06T01:35:43.418Z,1.83
2023-03-06T01:38:17.530Z,1.92
2023-03-06T01:40:47.519Z,2.02
2023-03-06T01:43:32.102Z,2.09
2023-03-06T01:46:28.280Z,2.06
2023-03-06T01:49:02.000Z,1.63
2023-03-06T01:51:38.161Z,1.77
2023-03-06T01:54:17.224Z,1.86
2023-03-06T01:56:51.569Z,1.98
2023-03-06T01:59:25.099Z,2.04
2023-03-06T02:01:58.029Z,2.01
2023-03-06T02:04:28.424Z,1.99
2023-03-06T02:07:06.882Z,1.82
2023-03-06T02:09:41.529Z,1.92
2023-03-06T02:12:20.438Z,1.92
2023-03-06T02:14:52.951Z,2.01
2023-03-06T02:17:27.020Z,1.92
2023-03-06T02:20:06.532Z,1.73
2023-03-06T02:22:43.261Z,1.77
2023-03-06T02:25:34.633Z,1.76
2023-03-06T02:28:05.128Z,1.72
2023-03-06T02:30:35.251Z,1.60
2023-03-06T02:33:05.389Z,1.66
2023-03-06T02:35:38.496Z,1.57
2023-03-06T02:38:14.026Z,1.61
2023-03-06T02:40:52.817Z,1.66
2023-03-06T02:43:29.321Z,1.62
2023-03-06T02:45:59.877Z,1.53
2023-03-06T02:48:29.736Z,1.55
2023-03-06T02:50:59.754Z,1.56
2023-03-06T02:53:29.925Z,1.58
2023-03-06T02:56:05.072Z,1.46
2023-03-06T02:58:35.495Z,1.52
2023-03-06T03:01:07.680Z,1.59
2023-03-06T03:03:38.266Z,1.60
2023-03-06T03:06:09.862Z,1.47
2023-03-06T03:08:42.195Z,1.52
2023-03-06T03:11:17.673Z,1.51
2023-03-06T03:13:52.466Z,1.31
2023-03-06T03:16:27.573Z,1.38
2023-03-06T03:19:02.736Z,1.41
2023-03-06T03:21:40.474Z,1.49
2023-03-06T03:24:12.775Z,1.51
2023-03-06T03:26:51.259Z,1.40
2023-03-06T03:29:23.304Z,1.53
2023-03-06T03:32:02.446Z,1.68
2023-03-06T03:34:33.762Z,1.62
2023-03-06T03:37:06.742Z,1.35
2023-03-06T03:39:37.189Z,1.56
2023-03-06T03:42:10.808Z,1.64
2023-03-06T03:44:40.630Z,1.70
2023-03-06T03:47:10.575Z,1.68
2023-03-06T03:49:42.153Z,1.71
2023-03-06T03:52:12.455Z,1.73
2023-03-06T03:54:46.925Z,1.75
2023-03-06T03:57:19.672Z,1.61
2023-03-06T03:59:53.768Z,1.73
2023-03-06T04:02:43.874Z,1.78
2023-03-06T04:05:22.854Z,1.74
2023-03-06T04:07:52.895Z,1.73
2023-03-06T04:10:25.456Z,1.65
2023-03-06T04:12:58.546Z,1.53
2023-03-06T04:15:29.798Z,1.58
2023-03-06T04:18:00.149Z,1.56
2023-03-06T04:20:32.511Z,1.54
2023-03-06T04:23:05.909Z,1.43
2023-03-06T04:25:36.143Z,1.45
2023-03-06T04:28:11.021Z,1.47
2023-03-06T04:30:41.906Z,1.44
2023-03-06T04:33:12.022Z,1.46
2023-03-06T04:35:45.451Z,1.43
2023-03-06T04:38:21.669Z,1.53
2023-03-06T04:40:52.326Z,1.60
2023-03-06T04:43:25.379Z,1.63
2023-03-06T04:45:55.504Z,1.64
2023-03-06T04:48:25.501Z,1.63
2023-03-06T04:50:55.649Z,1.51
2023-03-06T04:53:25.566Z,1.44
2023-03-06T04:55:55.696Z,1.53
2023-03-06T04:58:33.148Z,1.56
2023-03-06T05:01:04.702Z,1.60
2023-03-06T05:03:38.652Z,1.51
2023-03-06T05:06:10.434Z,1.57
2023-03-06T05:08:41.341Z,1.81
2023-03-06T05:11:11.448Z,1.80
2023-03-06T05:13:44.356Z,2.00
2023-03-06T05:16:16.559Z,1.97
2023-03-06T05:18:50.155Z,1.93
2023-03-06T05:21:22.637Z,2.01
2023-03-06T05:23:54.616Z,1.96
2023-03-06T05:26:25.479Z,1.97
2023-03-06T05:28:58.376Z,1.92
2023-03-06T05:31:28.747Z,1.83
2023-03-06T05:34:02.993Z,1.68
2023-03-06T05:36:33.166Z,1.64
2023-03-06T05:39:06.718Z,1.74
2023-03-06T05:41:40.428Z,1.77
2023-03-06T05:44:15.461Z,1.78
2023-03-06T05:46:48.550Z,1.83
2023-03-06T05:49:20.314Z,1.70
2023-03-06T05:51:52.659Z,1.65
2023-03-06T05:54:24.518Z,1.71
2023-03-06T05:56:57.320Z,1.78
2023-03-06T05:59:33.007Z,1.84
2023-03-06T06:02:05.648Z,1.81
2023-03-06T06:04:36.841Z,1.74
2023-03-06T06:07:06.985Z,1.76
2023-03-06T06:09:36.858Z,1.82
2023-03-06T06:12:07.318Z,1.80
2023-03-06T06:14:42.535Z,1.83
2023-03-06T06:17:13.720Z,1.79
2023-03-06T06:19:46.541Z,1.86
2023-03-06T06:22:18.938Z,1.92
2023-03-06T06:24:49.905Z,1.99
2023-03-06T06:27:20.347Z,2.04
2023-03-06T06:29:55.535Z,2.08
2023-03-06T06:32:27.371Z,2.16
2023-03-06T06:34:59.257Z,2.16
2023-03-06T06:37:29.199Z,2.21
2023-03-06T06:40:02.150Z,2.18
2023-03-06T06:42:38.982Z,2.15
2023-03-06T06:45:13.991Z,2.18
2023-03-06T06:47:44.622Z,2.21
2023-03-06T06:50:16.743Z,2.33
2023-03-06T06:52:48.994Z,2.37
2023-03-06T06:55:19.169Z,2.42
2023-03-06T06:57:49.002Z,2.43
2023-03-06T07:00:24.449Z,2.46
2023-03-06T07:02:54.235Z,2.58
2023-03-06T07:05:24.073Z,2.68
2023-03-06T07:07:54.105Z,2.63
2023-03-06T07:10:24.356Z,2.58
2023-03-06T07:12:56.540Z,2.63
2023-03-06T07:15:31.148Z,2.66
2023-03-06T07:18:01.412Z,2.87
2023-03-06T07:20:32.079Z,3.08
2023-03-06T07:23:02.619Z,3.04
2023-03-06T07:25:40.998Z,3.20
2023-03-06T07:28:15.189Z,3.32
2023-03-06T07:30:50.067Z,3.33
2023-03-06T07:33:22.610Z,3.41
2023-03-06T07:35:54.654Z,3.39
2023-03-06T07:38:27.415Z,3.27
2023-03-06T07:40:58.326Z,3.29
2023-03-06T07:43:29.700Z,3.43
2023-03-06T07:46:08.962Z,3.39
2023-03-06T07:48:40.037Z,3.62
2023-03-06T07:51:14.853Z,3.78
2023-03-06T07:53:45.139Z,3.74
2023-03-06T07:56:16.335Z,3.74
2023-03-06T07:58:48.436Z,3.95
2023-03-06T08:01:25.046Z,3.79
2023-03-06T08:03:56.209Z,3.79
2023-03-06T08:06:29.158Z,3.86
2023-03-06T08:08:59.848Z,3.70
2023-03-06T08:11:33.373Z,3.86
2023-03-06T08:14:03.417Z,4.13
2023-03-06T08:16:35.975Z,4.20
2023-03-06T08:19:05.857Z,4.35
2023-03-06T08:21:35.738Z,4.31
2023-03-06T08:24:07.452Z,4.31
2023-03-06T08:26:37.853Z,4.28
2023-03-06T08:29:08.913Z,4.37
2023-03-06T08:31:44.819Z,4.40
2023-03-06T08:34:16.682Z,4.36
2023-03-06T08:36:46.995Z,4.42
2023-03-06T08:39:21.034Z,4.42
2023-03-06T08:41:53.572Z,4.56
2023-03-06T08:44:27.107Z,4.57
2023-03-06T08:47:05.093Z,4.66
2023-03-06T08:49:39.562Z,4.68
2023-03-06T08:52:11.182Z,4.69
2023-03-06T08:54:41.032Z,4.66
2023-03-06T08:57:11.155Z,4.59
2023-03-06T08:59:44.461Z,4.71
2023-03-06T09:02:18.032Z,4.68
2023-03-06T09:04:48.106Z,4.70
2023-03-06T09:07:17.966Z,4.86
2023-03-06T09:09:48.918Z,5.05
2023-03-06T09:12:19.270Z,5.25
2023-03-06T09:14:49.101Z,5.41
2023-03-06T09:17:22.128Z,5.10
2023-03-06T09:19:52.512Z,4.99
2023-03-06T09:22:29.636Z,5.04
2023-03-06T09:24:59.547Z,5.02
2023-03-06T09:27:30.314Z,5.08
2023-03-06T09:30:00.612Z,5.01
2023-03-06T09:32:33.442Z,5.04
2023-03-06T09:35:03.888Z,4.90
2023-03-06T09:37:34.555Z,4.87
2023-03-06T09:40:06.003Z,5.00
2023-03-06T09:42:46.460Z,5.00
2023-03-06T09:45:17.918Z,5.04
2023-03-06T09:48:01.480Z,5.17
2023-03-06T09:50:41.128Z,5.08
2023-03-06T09:53:34.445Z,4.85
2023-03-06T09:56:14.821Z,4.89
2023-03-06T09:58:57.542Z,4.93
2023-03-06T10:01:35.393Z,5.07
2023-03-06T10:04:30.478Z,5.17
2023-03-06T10:07:06.905Z,5.33
2023-03-06T10:09:50.940Z,5.41
2023-03-06T10:12:28.860Z,5.35
2023-03-06T10:15:06.525Z,5.45
2023-03-06T10:17:42.554Z,5.50
2023-03-06T10:20:20.928Z,5.45
2023-03-06T10:23:13.474Z,5.53
2023-03-06T10:25:55.820Z,5.41
2023-03-06T10:28:35.938Z,5.53
2023-03-06T10:31:16.092Z,5.45
2023-03-06T10:34:11.920Z,5.55
2023-03-06T10:36:44.939Z,5.41
2023-03-06T10:39:22.389Z,5.43
2023-03-06T10:41:58.792Z,5.39
2023-03-06T10:44:30.845Z,5.44
2023-03-06T10:47:35.342Z,5.50
2023-03-06T10:50:09.996Z,5.88
2023-03-06T10:52:44.414Z,5.98
2023-03-06T10:55:28.669Z,5.97
2023-03-06T10:57:59.646Z,5.97
2023-03-06T11:00:36.884Z,6.04
2023-03-06T11:03:19.140Z,6.10
2023-03-06T11:06:04.866Z,6.07
2023-03-06T11:08:44.702Z,6.06
2023-03-06T11:11:37.139Z,6.06
2023-03-06T11:14:17.987Z,6.21
2023-03-06T11:16:53.734Z,6.37
2023-03-06T11:19:28.181Z,6.48
2023-03-06T11:22:06.755Z,6.58
2023-03-06T11:24:45.995Z,6.69
2023-03-06T11:27:30.569Z,6.57
2023-03-06T11:30:08.097Z,6.49
2023-03-06T11:32:50.449Z,6.22
2023-03-06T11:35:36.122Z,5.95
2023-03-06T11:38:14.828Z,5.81
2023-03-06T11:40:56.681Z,5.55
2023-03-06T11:43:37.288Z,5.51
2023-03-06T11:46:17.884Z,5.45
2023-03-06T11:48:55.703Z,5.17
2023-03-06T11:51:29.674Z,5.28
2023-03-06T11:54:03.576Z,5.28
2023-03-06T11:56:51.304Z,5.16
2023-03-06T12:00:01.325Z,5.06
2023-03-06T12:02:54.493Z,5.22
2023-03-06T12:05:39.530Z,5.05
2023-03-06T12:08:33.118Z,5.07
2023-03-06T12:11:22.548Z,5.17
2023-03-06T12:14:23.517Z,5.38
2023-03-06T12:17:12.703Z,5.47
2023-03-06T12:20:00.239Z,5.58
2023-03-06T12:22:58.023Z,5.51
2023-03-06T12:25:49.746Z,5.59
2023-03-06T12:28:46.595Z,5.57
2023-03-06T12:31:46.474Z,5.74
2023-03-06T12:34:40.651Z,5.65
2023-03-06T12:37:25.018Z,5.64
2023-03-06T12:40:31.228Z,5.67
2023-03-06T12:43:40.069Z,5.61
2023-03-06T12:46:18.558Z,5.37
2023-03-06T12:49:04.719Z,5.24
2023-03-06T12:51:38.731Z,5.15
2023-03-06T12:54:10.082Z,5.07
2023-03-06T12:56:46.639Z,4.92
2023-03-06T12:59:44.201Z,4.87
2023-03-06T13:02:58.081Z,5.02
2023-03-06T13:05:44.122Z,4.95
2023-03-06T13:09:00.604Z,4.80
2023-03-06T13:12:06.735Z,4.85
2023-03-06T13:14:59.100Z,4.85
2023-03-06T13:17:42.199Z,4.99
2023-03-06T13:20:48.802Z,4.93
2023-03-06T13:23:53.435Z,4.83
2023-03-06T13:26:51.692Z,4.91
2023-03-06T13:29:52.870Z,4.87
2023-03-06T13:32:33.045Z,4.97
2023-03-06T13:35:03.042Z,4.93
2023-03-06T13:37:52.364Z,4.91
2023-03-06T13:40:32.443Z,4.84
2023-03-06T13:43:23.672Z,4.88
2023-03-06T13:45:54.269Z,4.84
2023-03-06T13:48:47.652Z,4.84
2023-03-06T13:51:26.648Z,4.82
2023-03-06T13:54:23.285Z,4.78
2023-03-06T13:57:17.091Z,4.75
2023-03-06T14:00:14.460Z,4.78
2023-03-06T14:03:03.681Z,4.81
2023-03-06T14:05:45.035Z,4.80
2023-03-06T14:08:27.079Z,4.80
2023-03-06T14:11:09.042Z,4.77
2023-03-06T14:13:53.405Z,4.80
2023-03-06T14:16:40.627Z,4.79
2023-03-06T14:19:22.740Z,4.88
2023-03-06T14:22:09.858Z,4.84
2023-03-06T14:24:54.300Z,4.89
2023-03-06T14:27:48.419Z,5.00
2023-03-06T14:30:25.211Z,5.03
2023-03-06T14:32:59.256Z,5.11
2023-03-06T14:35:34.792Z,5.00
2023-03-06T14:38:08.412Z,5.11
2023-03-06T14:40:47.845Z,5.11
2023-03-06T14:43:31.422Z,5.16
2023-03-06T14:46:03.518Z,5.20
2023-03-06T14:48:47.864Z,5.15
2023-03-06T14:51:21.734Z,5.12
2023-03-06T14:53:54.405Z,5.07
2023-03-06T14:56:31.459Z,5.03
2023-03-06T14:59:09.926Z,5.04
2023-03-06T15:01:45.852Z,5.08
2023-03-06T15:04:31.458Z,5.06
2023-03-06T15:07:04.337Z,4.99
2023-03-06T15:09:39.069Z,4.90
2023-03-06T15:12:33.918Z,4.95
2023-03-06T15:15:31.549Z,4.97
2023-03-06T15:18:02.324Z,4.99
2023-03-06T15:20:47.693Z,5.00
2023-03-06T15:23:25.116Z,5.00
2023-03-06T15:25:59.131Z,5.00
2023-03-06T15:28:36.082Z,5.00
2023-03-06T15:31:28.137Z,4.99
2023-03-06T15:34:23.969Z,4.92
2023-03-06T15:36:57.291Z,4.99
2023-03-06T15:39:45.282Z,4.96
2023-03-06T15:42:22.535Z,4.92
2023-03-06T15:44:56.434Z,4.96
2023-03-06T15:47:35.747Z,4.93
2023-03-06T15:50:16.070Z,4.92
2023-03-06T15:52:52.036Z,4.92
2023-03-06T15:55:26.021Z,4.88
2023-03-06T15:58:05.506Z,4.97
2023-03-06T16:00:38.803Z,4.85
2023-03-06T16:03:15.338Z,4.79
2023-03-06T16:05:47.030Z,4.87
2023-03-06T16:08:17.544Z,4.79
2023-03-06T16:10:53.491Z,4.76
2023-03-06T16:13:30.692Z,4.75
2023-03-06T16:16:04.714Z,4.78
2023-03-06T16:18:41.363Z,4.73
2023-03-06T16:21:11.434Z,4.71
2023-03-06T16:23:42.779Z,4.72
2023-03-06T16:26:23.130Z,4.63
2023-03-06T16:28:55.199Z,4.68
2023-03-06T16:31:25.302Z,4.61
2023-03-06T16:33:58.172Z,4.60
2023-03-06T16:36:30.236Z,4.55
2023-03-06T16:39:00.014Z,4.60
2023-03-06T16:41:33.468Z,4.59
2023-03-06T16:44:04.090Z,4.58
2023-03-06T16:46:34.032Z,4.54
2023-03-06T16:49:10.398Z,4.55
2023-03-06T16:51:40.527Z,4.50
2023-03-06T16:54:12.985Z,4.49
2023-03-06T16:56:42.942Z,4.44
2023-03-06T16:59:14.393Z,4.44
2023-03-06T17:01:45.934Z,4.37
2023-03-06T17:04:18.399Z,4.34
2023-03-06T17:06:52.928Z,4.33
2023-03-06T17:09:22.813Z,4.34
2023-03-06T17:11:52.616Z,4.27
2023-03-06T17:14:24.742Z,4.28
2023-03-06T17:16:57.210Z,4.32
2023-03-06T17:19:30.293Z,4.24
2023-03-06T17:22:01.037Z,4.23
2023-03-06T17:24:31.178Z,4.21
2023-03-06T17:27:01.300Z,4.23
2023-03-06T17:29:32.011Z,4.23
2023-03-06T17:32:06.587Z,4.21
2023-03-06T17:34:40.387Z,4.19
2023-03-06T17:37:12.831Z,4.22
2023-03-06T17:39:44.157Z,4.15
2023-03-06T17:42:14.093Z,4.14
2023-03-06T17:44:48.382Z,4.10
2023-03-06T17:47:21.334Z,4.11
2023-03-06T17:49:54.101Z,4.13
2023-03-06T17:52:24.681Z,4.15
2023-03-06T17:54:55.705Z,4.24
2023-03-06T17:57:25.805Z,4.22
2023-03-06T17:59:56.466Z,4.17
2023-03-06T18:02:32.055Z,4.11
2023-03-06T18:05:04.856Z,4.04
2023-03-06T18:07:35.859Z,4.11
2023-03-06T18:10:12.973Z,4.14
2023-03-06T18:12:44.315Z,4.15
2023-03-06T18:15:14.608Z,4.10
2023-03-06T18:17:44.484Z,4.11
2023-03-06T18:20:17.652Z,4.08
2023-03-06T18:22:47.841Z,4.07
2023-03-06T18:25:18.161Z,4.09
2023-03-06T18:27:49.155Z,4.11
2023-03-06T18:30:20.363Z,4.12
2023-03-06T18:32:50.910Z,4.01
2023-03-06T18:35:24.473Z,4.05
2023-03-06T18:37:58.542Z,4.06
2023-03-06T18:40:28.493Z,4.11
2023-03-06T18:42:58.920Z,4.13
2023-03-06T18:45:29.073Z,4.11
2023-03-06T18:47:59.512Z,4.14
2023-03-06T18:50:34.195Z,4.14
2023-03-06T18:53:10.221Z,4.15
2023-03-06T18:55:40.060Z,4.12
2023-03-06T18:58:13.346Z,4.11
2023-03-06T19:00:44.311Z,4.22
2023-03-06T19:03:15.129Z,4.30
2023-03-06T19:05:52.736Z,4.35
2023-03-06T19:08:23.434Z,4.26
2023-03-06T19:10:57.498Z,4.22
2023-03-06T19:13:28.808Z,4.22
2023-03-06T19:15:59.757Z,4.23
2023-03-06T19:18:31.763Z,4.20
2023-03-06T19:21:14.669Z,4.16
2023-03-06T19:23:45.926Z,4.16
2023-03-06T19:26:18.913Z,4.14
2023-03-06T19:28:50.986Z,4.13
2023-03-06T19:31:25.177Z,4.14
2023-03-06T19:33:58.704Z,4.13
2023-03-06T19:36:34.285Z,4.12
2023-03-06T19:39:06.534Z,4.10
2023-03-06T19:41:37.780Z,4.10
2023-03-06T19:44:09.577Z,3.96
2023-03-06T19:46:43.547Z,4.04
2023-03-06T19:49:18.610Z,4.02
2023-03-06T19:51:51.132Z,3.98
2023-03-06T19:54:23.557Z,4.00
2023-03-06T19:56:53.981Z,3.97
2023-03-06T19:59:24.521Z,3.97
2023-03-06T20:01:54.398Z,3.96
2023-03-06T20:04:24.645Z,3.97
2023-03-06T20:06:57.173Z,3.95
2023-03-06T20:09:27.361Z,3.96
2023-03-06T20:11:57.210Z,3.96
2023-03-06T20:14:27.630Z,3.96
2023-03-06T20:16:58.931Z,3.95
2023-03-06T20:19:30.632Z,3.93
2023-03-06T20:22:04.099Z,3.93
2023-03-06T20:24:35.002Z,3.92
2023-03-06T20:27:06.244Z,3.95
2023-03-06T20:29:36.868Z,3.93
2023-03-06T20:32:06.974Z,3.93
2023-03-06T20:34:38.863Z,3.93
2023-03-06T20:37:13.062Z,3.94
2023-03-06T20:39:43.205Z,3.89
2023-03-06T20:42:13.402Z,3.91
2023-03-06T20:44:45.910Z,3.94
2023-03-06T20:47:16.354Z,3.91
2023-03-06T20:49:46.253Z,3.92
2023-03-06T20:52:18.827Z,3.91
2023-03-06T20:54:49.252Z,3.84
2023-03-06T20:57:19.359Z,4.06
2023-03-06T20:59:49.552Z,4.19
2023-03-06T21:02:19.439Z,4.18
2023-03-06T21:04:49.718Z,4.16
2023-03-06T21:07:22.662Z,4.03
2023-03-06T21:09:54.489Z,3.94
2023-03-06T21:12:27.457Z,3.92
2023-03-06T21:14:59.500Z,3.92
2023-03-06T21:17:31.901Z,3.92
2023-03-06T21:20:01.973Z,3.98
2023-03-06T21:22:36.288Z,3.93
2023-03-06T21:25:12.955Z,3.92
2023-03-06T21:27:46.621Z,3.88
2023-03-06T21:30:17.445Z,3.86
2023-03-06T21:32:51.466Z,3.82
2023-03-06T21:35:25.587Z,3.78
2023-03-06T21:38:00.984Z,3.87
2023-03-06T21:40:31.409Z,3.83
2023-03-06T21:43:02.433Z,3.78
2023-03-06T21:45:34.562Z,3.83
2023-03-06T21:48:06.019Z,3.84
2023-03-06T21:50:35.809Z,3.83
2023-03-06T21:53:08.441Z,3.84
2023-03-06T21:55:41.697Z,3.87
2023-03-06T21:58:12.004Z,3.84
2023-03-06T22:00:41.889Z,3.79
2023-03-06T22:03:13.044Z,3.79
2023-03-06T22:05:43.379Z,3.79
2023-03-06T22:08:21.215Z,3.81
2023-03-06T22:10:52.214Z,3.81
2023-03-06T22:13:23.034Z,3.80
2023-03-06T22:15:55.284Z,3.84
2023-03-06T22:18:25.464Z,3.80
2023-03-06T22:20:55.989Z,3.69
2023-03-06T22:23:28.958Z,3.72
2023-03-06T22:25:58.806Z,3.72
2023-03-06T22:28:38.917Z,3.72
2023-03-06T22:31:12.671Z,3.65
2023-03-06T22:33:44.618Z,3.64
2023-03-06T22:36:17.941Z,3.59
2023-03-06T22:38:53.319Z,3.61
2023-03-06T22:41:28.882Z,3.65
2023-03-06T22:44:04.500Z,3.62
2023-03-06T22:46:35.570Z,3.63
2023-03-06T22:49:07.354Z,3.67
2023-03-06T22:51:37.619Z,3.64
2023-03-06T22:54:11.217Z,3.61
2023-03-06T22:56:41.177Z,3.62
2023-03-06T22:59:11.603Z,3.60
2023-03-06T23:01:41.850Z,3.56
2023-03-06T23:04:13.598Z,3.51
2023-03-06T23:06:47.005Z,3.49
2023-03-06T23:09:25.424Z,3.45
2023-03-06T23:12:18.094Z,3.45
2023-03-06T23:15:11.540Z,3.44
2023-03-06T23:18:00.505Z,3.42
2023-03-06T23:20:49.747Z,3.42
2023-03-06T23:23:39.863Z,3.40
2023-03-06T23:26:16.350Z,3.39
2023-03-06T23:28:46.883Z,3.39
2023-03-06T23:31:22.234Z,3.35
2023-03-06T23:33:53.450Z,3.35
2023-03-06T23:36:26.166Z,3.31
2023-03-06T23:38:58.988Z,3.29
2023-03-06T23:41:32.667Z,3.26
2023-03-06T23:44:03.486Z,3.22
2023-03-06T23:46:35.083Z,3.19
2023-03-06T23:49:05.567Z,3.19
2023-03-06T23:51:36.560Z,3.23
2023-03-06T23:54:07.885Z,3.21
2023-03-06T23:56:42.518Z,3.18
2023-03-06T23:59:16.676Z,3.20
